»·PEaware :: DCM204 KSNA-KOAK

DCM204 :: KSNA-KOAK

FLIGHT INFORMATION

Flight Status: Arrived
Operator:
DotCom
More flights by this operator :: More flights under this callsign
Pilot: Bill F. (18685)
Aircraft: Cessna 525C Citation CJ4
(C25C)
More flights by this aircraft type
Origin: KSNA John Wayne-Orange Co
United States
Destination: KOAK Metro Oakland Intl
United States
More flights between these airports :: More routes between these airports
Route: HHERO3 OROSZ COREZ RGOOD EMZOH3
File this flight plan on PilotEdge
Remarks:
Altitude:
(Current/Filed)
36,000ft
Speed:
(Current/Filed)
276kts
Departed: 16-Dec-21 09:22 PM
Arrived: 16-Dec-21 10:30 PM
Distance/Time
Traveled:
322nm/1:08
Distance/Time
To Go:
Arrived

Flight Plot

Page will automatically refresh every two minutes.

Flight plan parsing failed; only flown route is shown


Map Options




Map Legend


Flown Route
Filed Route
Departure Airport
Arrival Airport
Navaid (VOR, NDB)
Fix

Horizontal Profiles

Position Reports

Time Latitude Longitude Heading Altitude Ground
Speed
16-Dec-21 20:48 33.671924 -117.867047 211 44ft 0kts
16-Dec-21 20:49 33.671924 -117.867047 211 44ft 0kts
16-Dec-21 20:50 33.671924 -117.867047 211 44ft 0kts
16-Dec-21 20:51 33.671924 -117.867047 211 44ft 0kts
16-Dec-21 20:52 33.671924 -117.867047 211 44ft 0kts
16-Dec-21 20:53 33.671924 -117.867047 211 44ft 0kts
16-Dec-21 20:54 33.671924 -117.867047 211 44ft 0kts
16-Dec-21 20:55 33.671924 -117.867047 211 44ft 0kts
16-Dec-21 20:56 33.671924 -117.867047 211 44ft 0kts
16-Dec-21 20:57 33.671924 -117.867047 211 44ft 0kts
16-Dec-21 20:58 33.671924 -117.867047 211 44ft 0kts
16-Dec-21 20:59 33.671924 -117.867047 211 44ft 0kts
16-Dec-21 21:00 33.671924 -117.867047 211 44ft 0kts
16-Dec-21 21:01 33.671924 -117.867047 211 44ft 0kts
16-Dec-21 21:02 33.671924 -117.867047 211 44ft 0kts
16-Dec-21 21:03 33.671924 -117.867047 211 44ft 0kts
16-Dec-21 21:04 33.671924 -117.867047 211 44ft 0kts
16-Dec-21 21:05 33.671924 -117.867047 211 44ft 0kts
16-Dec-21 21:06 33.671924 -117.867047 211 44ft 0kts
16-Dec-21 21:07 33.671924 -117.867047 211 44ft 0kts
16-Dec-21 21:08 33.671924 -117.867047 211 44ft 0kts
16-Dec-21 21:09 33.671924 -117.867047 211 44ft 0kts
16-Dec-21 21:10 33.671924 -117.867047 211 44ft 0kts
16-Dec-21 21:11 33.671924 -117.867047 211 44ft 0kts
16-Dec-21 21:12 33.671924 -117.867047 211 44ft 0kts
16-Dec-21 21:13 33.671924 -117.867047 211 44ft 0kts
16-Dec-21 21:14 33.671924 -117.867047 211 44ft 0kts
16-Dec-21 21:15 33.671924 -117.867047 211 44ft 0kts
16-Dec-21 21:16 33.671924 -117.867047 211 44ft 0kts
16-Dec-21 21:17 33.674520 -117.866228 29 44ft 22kts
16-Dec-21 21:18 33.680681 -117.863163 296 44ft 19kts
16-Dec-21 21:19 33.681159 -117.864209 295 43ft 0kts
16-Dec-21 21:20 33.681159 -117.864209 295 43ft 0kts
16-Dec-21 21:21 33.675189 -117.869185 207 97ft 136kts
16-Dec-21 21:22 33.616357 -117.885604 192 4987ft 268kts
16-Dec-21 21:23 33.552210 -117.921136 224 4935ft 239kts
16-Dec-21 21:24 33.500223 -117.979347 227 7340ft 254kts
16-Dec-21 21:25 33.455071 -118.051985 244 7940ft 300kts
16-Dec-21 21:26 33.413848 -118.142918 260 8956ft 304kts
16-Dec-21 21:27 33.427055 -118.236983 284 13068ft 288kts
16-Dec-21 21:28 33.451825 -118.331734 296 16086ft 325kts
16-Dec-21 21:29 33.496494 -118.429721 294 19105ft 339kts
16-Dec-21 21:30 33.573263 -118.480435 2 22103ft 368kts
16-Dec-21 21:31 33.677145 -118.466435 359 24709ft 369kts
16-Dec-21 21:32 33.778461 -118.458593 350 27508ft 359kts
16-Dec-21 21:33 33.878173 -118.459657 350 30229ft 356kts
16-Dec-21 21:34 33.980450 -118.459661 349 31778ft 377kts
16-Dec-21 21:35 34.074169 -118.494278 324 33806ft 346kts
16-Dec-21 21:36 34.161924 -118.541321 328 35822ft 346kts
16-Dec-21 21:37 34.256282 -118.588620 328 35879ft 385kts
16-Dec-21 21:38 34.359200 -118.640895 333 35714ft 415kts
16-Dec-21 21:39 34.465797 -118.698943 324 35703ft 421kts
16-Dec-21 21:40 34.566328 -118.773251 325 35718ft 428kts
16-Dec-21 21:41 34.668313 -118.844941 324 35674ft 417kts
16-Dec-21 21:42 34.767249 -118.915192 324 35675ft 407kts
16-Dec-21 21:43 34.864266 -118.984399 325 35665ft 402kts
16-Dec-21 21:44 34.961212 -119.053741 325 35668ft 407kts
16-Dec-21 21:45 35.049964 -119.117322 325 35683ft 409kts
16-Dec-21 21:46 35.148109 -119.187853 325 35678ft 410kts
16-Dec-21 21:47 35.246442 -119.258689 325 35672ft 410kts
16-Dec-21 21:48 35.344630 -119.329537 326 35668ft 410kts
16-Dec-21 21:49 35.442936 -119.400611 326 35660ft 409kts
16-Dec-21 21:50 35.540912 -119.471771 325 35654ft 408kts
16-Dec-21 21:51 35.626607 -119.559937 313 35646ft 402kts
16-Dec-21 21:52 35.708868 -119.653299 315 35641ft 402kts
16-Dec-21 21:53 35.796379 -119.739263 321 35634ft 402kts
16-Dec-21 21:54 35.885305 -119.822163 320 35629ft 401kts
16-Dec-21 21:55 35.968474 -119.912607 312 35625ft 397kts
16-Dec-21 21:56 36.046179 -120.006715 314 35615ft 396kts
16-Dec-21 21:57 36.126094 -120.101427 313 35608ft 395kts
16-Dec-21 21:58 36.204802 -120.195770 313 35605ft 393kts
16-Dec-21 21:59 36.283523 -120.289651 314 35592ft 392kts
16-Dec-21 22:00 36.361165 -120.382630 312 35597ft 376kts
16-Dec-21 22:01 36.436885 -120.474176 313 33812ft 390kts
16-Dec-21 22:02 36.513179 -120.566024 313 31819ft 367kts
16-Dec-21 22:03 36.586139 -120.648775 315 29962ft 345kts
16-Dec-21 22:04 36.655567 -120.726064 315 28270ft 325kts
16-Dec-21 22:05 36.721485 -120.799087 315 26727ft 310kts
16-Dec-21 22:06 36.785335 -120.870145 315 25088ft 305kts
16-Dec-21 22:07 36.847399 -120.938771 314 23460ft 299kts
16-Dec-21 22:08 36.881610 -120.977061 315 22587ft 297kts
16-Dec-21 22:09 36.917605 -121.017028 314 21714ft 293kts
16-Dec-21 22:10 36.970746 -121.076269 315 20396ft 289kts
16-Dec-21 22:11 37.030730 -121.142908 316 18832ft 288kts
16-Dec-21 22:12 37.090070 -121.209385 315 17259ft 285kts
16-Dec-21 22:13 37.148095 -121.276229 312 15860ft 282kts
16-Dec-21 22:14 37.200604 -121.347695 312 14453ft 276kts
16-Dec-21 22:15 37.253229 -121.417417 312 13121ft 273kts
16-Dec-21 22:16 37.303348 -121.483905 311 11789ft 272kts
16-Dec-21 22:17 37.355023 -121.553186 311 10508ft 272kts
16-Dec-21 22:18 37.406954 -121.622777 311 9189ft 273kts
16-Dec-21 22:19 37.458500 -121.691920 310 7951ft 273kts
16-Dec-21 22:20 37.510115 -121.761205 312 6701ft 266kts
16-Dec-21 22:21 37.559825 -121.828340 312 5336ft 258kts
16-Dec-21 22:22 37.600511 -121.890738 306 4467ft 247kts
16-Dec-21 22:23 37.642399 -121.958450 300 3454ft 241kts
16-Dec-21 22:24 37.666755 -122.035397 289 2651ft 225kts
16-Dec-21 22:25 37.687503 -122.098300 289 1624ft 170kts
16-Dec-21 22:26 37.703768 -122.148675 294 967ft 133kts
16-Dec-21 22:27 37.717559 -122.191164 296 402ft 118kts
16-Dec-21 22:28 37.727751 -122.222894 290 11ft 46kts
16-Dec-21 22:29 37.729492 -122.225373 26 14ft 0kts
16-Dec-21 22:30 37.729233 -122.222936 107 10ft 20kts
16-Dec-21 22:31 37.730645 -122.216053 77 6ft 12kts
16-Dec-21 22:32 37.728933 -122.212780 58 9ft 10kts
16-Dec-21 22:33 37.729861 -122.211511 127 7ft 0kts
16-Dec-21 22:34 37.729861 -122.211511 127 7ft 0kts
16-Dec-21 22:35 37.729861 -122.211511 127 7ft 0kts
16-Dec-21 22:36 37.729861 -122.211511 127 7ft 0kts
16-Dec-21 22:37 37.729861 -122.211511 127 7ft 0kts
16-Dec-21 22:38 37.729861 -122.211511 127 7ft 0kts
16-Dec-21 22:39 37.729861 -122.211511 127 7ft 0kts
16-Dec-21 22:40 37.729861 -122.211511 127 7ft 0kts
16-Dec-21 22:41 37.729861 -122.211511 127 7ft 0kts
16-Dec-21 22:42 37.729861 -122.211511 127 7ft 0kts
16-Dec-21 22:43 37.729861 -122.211511 127 7ft 0kts

Navigation Log

Ident Type
Flight plan parsing failed, navigation log unavailable